sensor_id;sensor_type;location;lat;lon;timestamp;P1;durP1;ratioP1;P2;durP2;ratioP2
80313;SDS011;69628;47.516;18.828;2023-05-10T00:00:09;5.75;;;3.05;;
80313;SDS011;69628;47.516;18.828;2023-05-10T00:01:10;6.60;;;2.72;;
80313;SDS011;69628;47.516;18.828;2023-05-10T00:02:10;5.40;;;3.33;;
80313;SDS011;69628;47.516;18.828;2023-05-10T00:03:11;4.07;;;2.70;;
80313;SDS011;69628;47.516;18.828;2023-05-10T00:04:11;7.22;;;3.17;;
80313;SDS011;69628;47.516;18.828;2023-05-10T00:05:11;4.85;;;3.42;;
80313;SDS011;69628;47.516;18.828;2023-05-10T00:06:12;7.40;;;3.60;;
80313;SDS011;69628;47.516;18.828;2023-05-10T00:07:12;5.35;;;3.13;;
80313;SDS011;69628;47.516;18.828;2023-05-10T00:08:13;4.05;;;3.00;;
80313;SDS011;69628;47.516;18.828;2023-05-10T00:09:13;5.63;;;3.45;;
80313;SDS011;69628;47.516;18.828;2023-05-10T00:10:13;4.70;;;2.95;;
80313;SDS011;69628;47.516;18.828;2023-05-10T00:11:14;5.50;;;3.00;;
80313;SDS011;69628;47.516;18.828;2023-05-10T00:12:14;5.05;;;3.30;;
80313;SDS011;69628;47.516;18.828;2023-05-10T00:13:15;5.95;;;2.95;;
80313;SDS011;69628;47.516;18.828;2023-05-10T00:14:15;5.95;;;3.35;;
80313;SDS011;69628;47.516;18.828;2023-05-10T00:15:16;4.45;;;2.85;;
80313;SDS011;69628;47.516;18.828;2023-05-10T00:16:16;5.68;;;3.00;;
80313;SDS011;69628;47.516;18.828;2023-05-10T00:17:17;6.15;;;3.33;;
80313;SDS011;69628;47.516;18.828;2023-05-10T00:18:17;9.10;;;3.20;;
80313;SDS011;69628;47.516;18.828;2023-05-10T00:19:17;5.57;;;3.30;;
80313;SDS011;69628;47.516;18.828;2023-05-10T00:20:18;5.38;;;3.40;;
80313;SDS011;69628;47.516;18.828;2023-05-10T00:21:18;6.72;;;3.80;;
80313;SDS011;69628;47.516;18.828;2023-05-10T00:22:19;12.18;;;3.67;;
80313;SDS011;69628;47.516;18.828;2023-05-10T00:23:19;8.43;;;3.42;;
80313;SDS011;69628;47.516;18.828;2023-05-10T00:24:19;8.27;;;3.67;;
80313;SDS011;69628;47.516;18.828;2023-05-10T00:25:20;5.18;;;3.28;;
80313;SDS011;69628;47.516;18.828;2023-05-10T00:26:21;8.13;;;3.78;;
80313;SDS011;69628;47.516;18.828;2023-05-10T00:27:21;8.63;;;3.70;;
80313;SDS011;69628;47.516;18.828;2023-05-10T00:28:22;8.05;;;3.83;;
80313;SDS011;69628;47.516;18.828;2023-05-10T00:29:23;4.68;;;3.35;;
80313;SDS011;69628;47.516;18.828;2023-05-10T00:30:24;6.38;;;3.75;;
80313;SDS011;69628;47.516;18.828;2023-05-10T00:31:24;9.15;;;3.65;;
80313;SDS011;69628;47.516;18.828;2023-05-10T00:32:24;5.47;;;3.55;;
80313;SDS011;69628;47.516;18.828;2023-05-10T00:33:25;6.13;;;4.00;;
80313;SDS011;69628;47.516;18.828;2023-05-10T00:34:34;9.93;;;3.72;;
80313;SDS011;69628;47.516;18.828;2023-05-10T00:35:35;8.73;;;3.67;;
80313;SDS011;69628;47.516;18.828;2023-05-10T00:36:35;4.93;;;3.65;;
80313;SDS011;69628;47.516;18.828;2023-05-10T00:37:36;6.30;;;4.13;;
80313;SDS011;69628;47.516;18.828;2023-05-10T00:38:36;8.32;;;3.80;;
80313;SDS011;69628;47.516;18.828;2023-05-10T00:39:37;7.43;;;4.18;;
80313;SDS011;69628;47.516;18.828;2023-05-10T00:40:37;5.93;;;3.90;;
80313;SDS011;69628;47.516;18.828;2023-05-10T00:41:38;6.15;;;3.65;;
80313;SDS011;69628;47.516;18.828;2023-05-10T00:42:38;6.25;;;3.90;;
80313;SDS011;69628;47.516;18.828;2023-05-10T00:43:38;8.38;;;4.05;;
80313;SDS011;69628;47.516;18.828;2023-05-10T00:44:39;8.45;;;4.03;;
80313;SDS011;69628;47.516;18.828;2023-05-10T00:45:39;7.78;;;4.43;;
80313;SDS011;69628;47.516;18.828;2023-05-10T00:46:40;5.90;;;4.13;;
80313;SDS011;69628;47.516;18.828;2023-05-10T00:47:51;7.10;;;4.00;;
80313;SDS011;69628;47.516;18.828;2023-05-10T00:49:21;6.57;;;4.25;;
80313;SDS011;69628;47.516;18.828;2023-05-10T00:50:21;5.90;;;4.00;;
80313;SDS011;69628;47.516;18.828;2023-05-10T00:51:22;6.95;;;3.97;;
80313;SDS011;69628;47.516;18.828;2023-05-10T00:52:23;5.03;;;3.88;;
80313;SDS011;69628;47.516;18.828;2023-05-10T00:53:24;12.98;;;3.83;;
80313;SDS011;69628;47.516;18.828;2023-05-10T00:54:24;8.32;;;4.38;;
80313;SDS011;69628;47.516;18.828;2023-05-10T00:55:25;7.93;;;4.07;;
80313;SDS011;69628;47.516;18.828;2023-05-10T00:56:25;9.68;;;3.90;;
80313;SDS011;69628;47.516;18.828;2023-05-10T00:57:26;8.65;;;4.10;;
80313;SDS011;69628;47.516;18.828;2023-05-10T00:58:27;5.60;;;3.90;;
80313;SDS011;69628;47.516;18.828;2023-05-10T00:59:28;5.38;;;3.72;;
80313;SDS011;69628;47.516;18.828;2023-05-10T01:00:28;7.18;;;4.05;;
80313;SDS011;69628;47.516;18.828;2023-05-10T01:01:29;6.57;;;3.90;;
80313;SDS011;69628;47.516;18.828;2023-05-10T01:02:38;6.25;;;3.85;;
80313;SDS011;69628;47.516;18.828;2023-05-10T01:03:39;6.40;;;4.00;;
80313;SDS011;69628;47.516;18.828;2023-05-10T01:04:40;7.18;;;3.97;;
80313;SDS011;69628;47.516;18.828;2023-05-10T01:05:40;8.07;;;4.03;;
80313;SDS011;69628;47.516;18.828;2023-05-10T01:06:41;6.13;;;3.78;;
80313;SDS011;69628;47.516;18.828;2023-05-10T01:07:42;5.15;;;3.88;;
80313;SDS011;69628;47.516;18.828;2023-05-10T01:08:42;5.97;;;3.58;;
80313;SDS011;69628;47.516;18.828;2023-05-10T01:09:42;9.68;;;3.72;;
80313;SDS011;69628;47.516;18.828;2023-05-10T01:10:43;12.60;;;3.92;;
80313;SDS011;69628;47.516;18.828;2023-05-10T01:11:44;9.07;;;3.78;;
80313;SDS011;69628;47.516;18.828;2023-05-10T01:12:45;5.80;;;4.00;;
80313;SDS011;69628;47.516;18.828;2023-05-10T01:13:47;9.82;;;4.05;;
80313;SDS011;69628;47.516;18.828;2023-05-10T01:14:52;7.30;;;3.85;;
80313;SDS011;69628;47.516;18.828;2023-05-10T01:15:53;5.43;;;3.83;;
80313;SDS011;69628;47.516;18.828;2023-05-10T01:16:53;7.50;;;4.28;;
80313;SDS011;69628;47.516;18.828;2023-05-10T01:17:54;5.38;;;3.95;;
80313;SDS011;69628;47.516;18.828;2023-05-10T01:18:56;6.18;;;4.03;;
80313;SDS011;69628;47.516;18.828;2023-05-10T01:19:56;6.00;;;4.10;;
80313;SDS011;69628;47.516;18.828;2023-05-10T01:21:43;7.18;;;4.50;;
80313;SDS011;69628;47.516;18.828;2023-05-10T01:31:03;7.13;;;4.00;;
80313;SDS011;69628;47.516;18.828;2023-05-10T01:32:49;8.77;;;4.38;;
80313;SDS011;69628;47.516;18.828;2023-05-10T01:34:51;8.25;;;4.90;;
80313;SDS011;69628;47.516;18.828;2023-05-10T01:37:29;6.95;;;4.85;;
80313;SDS011;69628;47.516;18.828;2023-05-10T01:38:49;9.55;;;4.78;;
80313;SDS011;69628;47.516;18.828;2023-05-10T01:42:23;10.20;;;4.63;;
80313;SDS011;69628;47.516;18.828;2023-05-10T01:43:28;6.72;;;4.47;;
80313;SDS011;69628;47.516;18.828;2023-05-10T01:47:01;6.68;;;4.47;;
80313;SDS011;69628;47.516;18.828;2023-05-10T01:49:19;7.78;;;4.55;;
80313;SDS011;69628;47.516;18.828;2023-05-10T01:50:24;6.22;;;4.20;;
80313;SDS011;69628;47.516;18.828;2023-05-10T01:51:36;6.80;;;4.57;;
80313;SDS011;69628;47.516;18.828;2023-05-10T01:52:48;7.80;;;4.07;;
80313;SDS011;69628;47.516;18.828;2023-05-10T01:53:58;6.88;;;4.45;;
80313;SDS011;69628;47.516;18.828;2023-05-10T01:55:02;10.15;;;4.47;;
80313;SDS011;69628;47.516;18.828;2023-05-10T01:56:05;6.05;;;4.07;;
80313;SDS011;69628;47.516;18.828;2023-05-10T01:57:06;8.48;;;4.60;;
80313;SDS011;69628;47.516;18.828;2023-05-10T01:58:09;9.73;;;4.90;;
80313;SDS011;69628;47.516;18.828;2023-05-10T01:59:15;9.57;;;4.80;;
80313;SDS011;69628;47.516;18.828;2023-05-10T02:00:17;8.07;;;4.40;;
80313;SDS011;69628;47.516;18.828;2023-05-10T02:01:19;6.00;;;4.30;;
80313;SDS011;69628;47.516;18.828;2023-05-10T02:02:20;8.38;;;4.63;;
80313;SDS011;69628;47.516;18.828;2023-05-10T02:03:30;9.57;;;4.45;;
80313;SDS011;69628;47.516;18.828;2023-05-10T02:04:33;8.93;;;4.63;;
80313;SDS011;69628;47.516;18.828;2023-05-10T02:05:35;8.77;;;4.35;;
80313;SDS011;69628;47.516;18.828;2023-05-10T02:06:36;7.57;;;4.70;;
80313;SDS011;69628;47.516;18.828;2023-05-10T02:07:38;6.28;;;4.70;;
80313;SDS011;69628;47.516;18.828;2023-05-10T02:08:39;6.10;;;4.55;;
80313;SDS011;69628;47.516;18.828;2023-05-10T02:09:40;7.38;;;4.50;;
80313;SDS011;69628;47.516;18.828;2023-05-10T02:10:40;10.50;;;4.68;;
80313;SDS011;69628;47.516;18.828;2023-05-10T02:11:42;8.80;;;4.63;;
80313;SDS011;69628;47.516;18.828;2023-05-10T02:12:45;7.55;;;4.60;;
80313;SDS011;69628;47.516;18.828;2023-05-10T02:13:48;6.35;;;4.32;;
80313;SDS011;69628;47.516;18.828;2023-05-10T02:14:49;7.95;;;4.88;;
80313;SDS011;69628;47.516;18.828;2023-05-10T02:15:51;6.32;;;4.32;;
80313;SDS011;69628;47.516;18.828;2023-05-10T02:16:52;8.40;;;4.95;;
80313;SDS011;69628;47.516;18.828;2023-05-10T02:17:54;8.15;;;4.43;;
80313;SDS011;69628;47.516;18.828;2023-05-10T02:18:55;7.85;;;4.50;;
80313;SDS011;69628;47.516;18.828;2023-05-10T02:19:57;9.82;;;4.93;;
80313;SDS011;69628;47.516;18.828;2023-05-10T02:21:11;7.00;;;4.30;;
80313;SDS011;69628;47.516;18.828;2023-05-10T02:22:12;7.07;;;4.50;;
80313;SDS011;69628;47.516;18.828;2023-05-10T02:23:13;7.57;;;4.57;;
80313;SDS011;69628;47.516;18.828;2023-05-10T02:24:14;7.50;;;4.43;;
80313;SDS011;69628;47.516;18.828;2023-05-10T02:25:15;6.80;;;4.65;;
80313;SDS011;69628;47.516;18.828;2023-05-10T02:26:18;7.82;;;4.95;;
80313;SDS011;69628;47.516;18.828;2023-05-10T02:27:20;9.55;;;4.88;;
80313;SDS011;69628;47.516;18.828;2023-05-10T02:28:21;7.72;;;4.50;;
80313;SDS011;69628;47.516;18.828;2023-05-10T02:29:23;8.77;;;5.13;;
80313;SDS011;69628;47.516;18.828;2023-05-10T02:30:24;7.55;;;4.80;;
80313;SDS011;69628;47.516;18.828;2023-05-10T02:31:25;7.13;;;4.80;;
80313;SDS011;69628;47.516;18.828;2023-05-10T02:32:27;6.85;;;4.65;;
80313;SDS011;69628;47.516;18.828;2023-05-10T02:33:28;9.90;;;5.00;;
80313;SDS011;69628;47.516;18.828;2023-05-10T02:34:29;6.60;;;4.63;;
80313;SDS011;69628;47.516;18.828;2023-05-10T02:35:30;6.95;;;4.70;;
80313;SDS011;69628;47.516;18.828;2023-05-10T02:36:33;6.80;;;4.93;;
80313;SDS011;69628;47.516;18.828;2023-05-10T02:37:34;7.30;;;4.38;;
80313;SDS011;69628;47.516;18.828;2023-05-10T02:38:36;6.68;;;4.70;;
80313;SDS011;69628;47.516;18.828;2023-05-10T02:39:36;6.55;;;4.60;;
80313;SDS011;69628;47.516;18.828;2023-05-10T02:40:38;7.47;;;4.65;;
80313;SDS011;69628;47.516;18.828;2023-05-10T02:41:41;13.02;;;4.72;;
80313;SDS011;69628;47.516;18.828;2023-05-10T02:42:42;8.00;;;4.78;;
80313;SDS011;69628;47.516;18.828;2023-05-10T02:43:43;7.80;;;4.45;;
80313;SDS011;69628;47.516;18.828;2023-05-10T02:44:47;6.88;;;4.82;;
80313;SDS011;69628;47.516;18.828;2023-05-10T02:46:49;8.80;;;4.43;;
80313;SDS011;69628;47.516;18.828;2023-05-10T02:47:50;9.00;;;4.45;;
80313;SDS011;69628;47.516;18.828;2023-05-10T02:48:50;7.00;;;4.55;;
80313;SDS011;69628;47.516;18.828;2023-05-10T02:49:50;8.20;;;4.75;;
80313;SDS011;69628;47.516;18.828;2023-05-10T02:50:52;6.95;;;4.70;;
80313;SDS011;69628;47.516;18.828;2023-05-10T02:51:55;6.30;;;4.18;;
80313;SDS011;69628;47.516;18.828;2023-05-10T02:52:59;6.68;;;4.20;;
80313;SDS011;69628;47.516;18.828;2023-05-10T02:54:01;10.27;;;4.60;;
80313;SDS011;69628;47.516;18.828;2023-05-10T02:55:09;6.45;;;4.07;;
80313;SDS011;69628;47.516;18.828;2023-05-10T02:56:13;7.35;;;4.47;;
80313;SDS011;69628;47.516;18.828;2023-05-10T02:57:16;7.25;;;4.13;;
80313;SDS011;69628;47.516;18.828;2023-05-10T02:58:18;6.57;;;4.28;;
80313;SDS011;69628;47.516;18.828;2023-05-10T02:59:21;8.15;;;4.38;;
80313;SDS011;69628;47.516;18.828;2023-05-10T03:00:22;7.43;;;4.20;;
80313;SDS011;69628;47.516;18.828;2023-05-10T03:01:22;8.55;;;4.22;;
80313;SDS011;69628;47.516;18.828;2023-05-10T03:02:23;7.20;;;4.35;;
80313;SDS011;69628;47.516;18.828;2023-05-10T03:03:23;7.13;;;4.35;;
80313;SDS011;69628;47.516;18.828;2023-05-10T03:04:24;6.55;;;3.85;;
80313;SDS011;69628;47.516;18.828;2023-05-10T03:05:27;8.70;;;4.13;;
80313;SDS011;69628;47.516;18.828;2023-05-10T03:06:28;6.57;;;4.45;;
80313;SDS011;69628;47.516;18.828;2023-05-10T03:07:28;6.47;;;4.43;;
80313;SDS011;69628;47.516;18.828;2023-05-10T03:08:29;8.60;;;3.97;;
80313;SDS011;69628;47.516;18.828;2023-05-10T03:09:30;8.00;;;4.32;;
80313;SDS011;69628;47.516;18.828;2023-05-10T03:10:32;9.23;;;3.95;;
80313;SDS011;69628;47.516;18.828;2023-05-10T03:15:53;9.27;;;4.50;;
80313;SDS011;69628;47.516;18.828;2023-05-10T03:17:11;8.73;;;4.15;;
80313;SDS011;69628;47.516;18.828;2023-05-10T03:19:30;5.50;;;3.95;;
80313;SDS011;69628;47.516;18.828;2023-05-10T03:20:36;7.20;;;3.95;;
80313;SDS011;69628;47.516;18.828;2023-05-10T03:21:47;6.28;;;4.32;;
80313;SDS011;69628;47.516;18.828;2023-05-10T03:22:51;6.80;;;4.15;;
80313;SDS011;69628;47.516;18.828;2023-05-10T03:24:00;8.98;;;4.50;;
80313;SDS011;69628;47.516;18.828;2023-05-10T03:25:06;5.72;;;3.80;;
80313;SDS011;69628;47.516;18.828;2023-05-10T03:26:08;6.20;;;3.95;;
80313;SDS011;69628;47.516;18.828;2023-05-10T03:27:08;6.80;;;4.28;;
80313;SDS011;69628;47.516;18.828;2023-05-10T03:28:10;7.03;;;4.13;;
80313;SDS011;69628;47.516;18.828;2023-05-10T03:29:12;7.97;;;4.30;;
80313;SDS011;69628;47.516;18.828;2023-05-10T03:30:13;6.13;;;4.35;;
80313;SDS011;69628;47.516;18.828;2023-05-10T03:31:14;9.05;;;4.30;;
80313;SDS011;69628;47.516;18.828;2023-05-10T03:32:14;9.30;;;4.25;;
80313;SDS011;69628;47.516;18.828;2023-05-10T03:33:15;8.32;;;4.20;;
80313;SDS011;69628;47.516;18.828;2023-05-10T03:34:15;7.97;;;4.63;;
80313;SDS011;69628;47.516;18.828;2023-05-10T03:35:17;8.70;;;4.47;;
80313;SDS011;69628;47.516;18.828;2023-05-10T03:36:26;8.73;;;4.70;;
80313;SDS011;69628;47.516;18.828;2023-05-10T03:37:27;9.50;;;4.55;;
80313;SDS011;69628;47.516;18.828;2023-05-10T03:38:27;6.60;;;4.45;;
80313;SDS011;69628;47.516;18.828;2023-05-10T03:39:28;6.63;;;4.13;;
80313;SDS011;69628;47.516;18.828;2023-05-10T03:40:28;10.27;;;4.10;;
80313;SDS011;69628;47.516;18.828;2023-05-10T03:41:31;10.73;;;4.10;;
80313;SDS011;69628;47.516;18.828;2023-05-10T03:42:31;8.05;;;4.18;;
80313;SDS011;69628;47.516;18.828;2023-05-10T03:43:32;5.30;;;3.80;;
80313;SDS011;69628;47.516;18.828;2023-05-10T03:44:32;8.52;;;4.57;;
80313;SDS011;69628;47.516;18.828;2023-05-10T03:45:33;5.80;;;4.07;;
80313;SDS011;69628;47.516;18.828;2023-05-10T03:46:33;8.02;;;4.60;;
80313;SDS011;69628;47.516;18.828;2023-05-10T03:47:34;5.72;;;4.00;;
80313;SDS011;69628;47.516;18.828;2023-05-10T03:48:34;11.25;;;4.20;;
80313;SDS011;69628;47.516;18.828;2023-05-10T03:49:40;6.60;;;4.35;;
80313;SDS011;69628;47.516;18.828;2023-05-10T03:50:41;10.00;;;4.60;;
80313;SDS011;69628;47.516;18.828;2023-05-10T03:51:42;6.40;;;4.20;;
80313;SDS011;69628;47.516;18.828;2023-05-10T03:52:43;8.70;;;4.25;;
80313;SDS011;69628;47.516;18.828;2023-05-10T03:53:44;7.38;;;4.05;;
80313;SDS011;69628;47.516;18.828;2023-05-10T03:54:44;10.48;;;4.50;;
80313;SDS011;69628;47.516;18.828;2023-05-10T03:55:45;6.88;;;4.25;;
80313;SDS011;69628;47.516;18.828;2023-05-10T03:56:46;7.18;;;4.63;;
80313;SDS011;69628;47.516;18.828;2023-05-10T03:57:47;10.13;;;4.80;;
80313;SDS011;69628;47.516;18.828;2023-05-10T03:58:49;8.48;;;4.38;;
80313;SDS011;69628;47.516;18.828;2023-05-10T03:59:50;7.22;;;4.45;;
80313;SDS011;69628;47.516;18.828;2023-05-10T04:00:50;7.03;;;4.50;;
80313;SDS011;69628;47.516;18.828;2023-05-10T04:01:51;8.35;;;4.57;;
80313;SDS011;69628;47.516;18.828;2023-05-10T04:02:57;11.52;;;5.05;;
80313;SDS011;69628;47.516;18.828;2023-05-10T04:04:02;8.80;;;4.43;;
80313;SDS011;69628;47.516;18.828;2023-05-10T04:05:03;10.32;;;4.43;;
80313;SDS011;69628;47.516;18.828;2023-05-10T04:06:03;6.47;;;4.32;;
80313;SDS011;69628;47.516;18.828;2023-05-10T04:07:05;9.60;;;4.50;;
80313;SDS011;69628;47.516;18.828;2023-05-10T04:08:05;6.82;;;4.45;;
80313;SDS011;69628;47.516;18.828;2023-05-10T04:09:06;8.45;;;4.57;;
80313;SDS011;69628;47.516;18.828;2023-05-10T04:10:07;6.30;;;4.30;;
80313;SDS011;69628;47.516;18.828;2023-05-10T04:11:08;13.43;;;5.50;;
80313;SDS011;69628;47.516;18.828;2023-05-10T04:12:10;38.13;;;9.52;;
80313;SDS011;69628;47.516;18.828;2023-05-10T04:13:10;30.98;;;7.95;;
80313;SDS011;69628;47.516;18.828;2023-05-10T04:14:11;22.13;;;7.13;;
80313;SDS011;69628;47.516;18.828;2023-05-10T04:15:11;15.63;;;5.95;;
80313;SDS011;69628;47.516;18.828;2023-05-10T04:16:15;8.57;;;4.75;;
80313;SDS011;69628;47.516;18.828;2023-05-10T04:17:15;9.02;;;4.70;;
80313;SDS011;69628;47.516;18.828;2023-05-10T04:18:15;5.70;;;3.78;;
80313;SDS011;69628;47.516;18.828;2023-05-10T04:19:17;10.48;;;4.50;;
80313;SDS011;69628;47.516;18.828;2023-05-10T04:20:17;6.22;;;4.18;;
80313;SDS011;69628;47.516;18.828;2023-05-10T04:21:17;4.95;;;3.90;;
80313;SDS011;69628;47.516;18.828;2023-05-10T04:22:18;5.70;;;4.13;;
80313;SDS011;69628;47.516;18.828;2023-05-10T04:23:18;7.30;;;4.80;;
80313;SDS011;69628;47.516;18.828;2023-05-10T04:24:18;9.63;;;4.55;;
80313;SDS011;69628;47.516;18.828;2023-05-10T04:25:19;6.03;;;4.32;;
80313;SDS011;69628;47.516;18.828;2023-05-10T04:26:19;6.88;;;4.50;;
80313;SDS011;69628;47.516;18.828;2023-05-10T04:27:20;9.07;;;4.32;;
80313;SDS011;69628;47.516;18.828;2023-05-10T04:28:20;6.45;;;4.00;;
80313;SDS011;69628;47.516;18.828;2023-05-10T04:29:30;7.07;;;4.60;;
80313;SDS011;69628;47.516;18.828;2023-05-10T04:30:50;5.55;;;4.20;;
80313;SDS011;69628;47.516;18.828;2023-05-10T04:31:50;7.65;;;4.53;;
80313;SDS011;69628;47.516;18.828;2023-05-10T04:32:51;7.22;;;3.80;;
80313;SDS011;69628;47.516;18.828;2023-05-10T04:33:57;8.10;;;4.75;;
80313;SDS011;69628;47.516;18.828;2023-05-10T04:34:58;7.55;;;4.15;;
80313;SDS011;69628;47.516;18.828;2023-05-10T04:35:58;6.88;;;4.47;;
80313;SDS011;69628;47.516;18.828;2023-05-10T04:36:58;5.85;;;4.05;;
80313;SDS011;69628;47.516;18.828;2023-05-10T04:37:59;6.20;;;4.45;;
80313;SDS011;69628;47.516;18.828;2023-05-10T04:38:59;6.25;;;3.80;;
80313;SDS011;69628;47.516;18.828;2023-05-10T04:40:00;7.60;;;4.40;;
80313;SDS011;69628;47.516;18.828;2023-05-10T04:41:07;7.03;;;4.78;;
80313;SDS011;69628;47.516;18.828;2023-05-10T04:42:08;7.72;;;4.35;;
80313;SDS011;69628;47.516;18.828;2023-05-10T04:43:09;5.40;;;3.90;;
80313;SDS011;69628;47.516;18.828;2023-05-10T04:44:09;6.80;;;4.00;;
80313;SDS011;69628;47.516;18.828;2023-05-10T04:45:10;6.97;;;4.40;;
80313;SDS011;69628;47.516;18.828;2023-05-10T04:46:10;7.00;;;4.00;;
80313;SDS011;69628;47.516;18.828;2023-05-10T04:47:14;8.98;;;4.32;;
80313;SDS011;69628;47.516;18.828;2023-05-10T04:48:14;6.70;;;4.43;;
80313;SDS011;69628;47.516;18.828;2023-05-10T04:49:14;5.72;;;4.07;;
80313;SDS011;69628;47.516;18.828;2023-05-10T04:50:15;5.93;;;3.92;;
80313;SDS011;69628;47.516;18.828;2023-05-10T04:51:15;6.57;;;4.20;;
80313;SDS011;69628;47.516;18.828;2023-05-10T04:52:16;8.30;;;4.20;;
80313;SDS011;69628;47.516;18.828;2023-05-10T04:53:17;8.02;;;4.50;;
80313;SDS011;69628;47.516;18.828;2023-05-10T04:54:18;7.22;;;4.47;;
80313;SDS011;69628;47.516;18.828;2023-05-10T04:55:18;6.63;;;4.70;;
80313;SDS011;69628;47.516;18.828;2023-05-10T04:56:19;7.20;;;4.43;;
80313;SDS011;69628;47.516;18.828;2023-05-10T04:57:19;6.72;;;4.63;;
80313;SDS011;69628;47.516;18.828;2023-05-10T04:58:19;7.78;;;4.38;;
80313;SDS011;69628;47.516;18.828;2023-05-10T04:59:20;9.25;;;5.00;;
80313;SDS011;69628;47.516;18.828;2023-05-10T05:00:29;6.45;;;4.25;;
80313;SDS011;69628;47.516;18.828;2023-05-10T05:01:30;8.90;;;4.40;;
80313;SDS011;69628;47.516;18.828;2023-05-10T05:02:30;8.13;;;4.78;;
80313;SDS011;69628;47.516;18.828;2023-05-10T05:03:31;8.57;;;4.90;;
80313;SDS011;69628;47.516;18.828;2023-05-10T05:04:31;5.90;;;3.95;;
80313;SDS011;69628;47.516;18.828;2023-05-10T05:05:32;7.57;;;4.43;;
80313;SDS011;69628;47.516;18.828;2023-05-10T05:06:32;7.20;;;4.43;;
80313;SDS011;69628;47.516;18.828;2023-05-10T05:07:32;10.38;;;4.78;;
80313;SDS011;69628;47.516;18.828;2023-05-10T05:08:33;7.90;;;4.50;;
80313;SDS011;69628;47.516;18.828;2023-05-10T05:09:33;6.78;;;4.55;;
80313;SDS011;69628;47.516;18.828;2023-05-10T05:10:34;6.65;;;4.60;;
80313;SDS011;69628;47.516;18.828;2023-05-10T05:11:34;8.32;;;4.40;;
80313;SDS011;69628;47.516;18.828;2023-05-10T05:12:35;6.93;;;4.22;;
80313;SDS011;69628;47.516;18.828;2023-05-10T05:13:35;8.18;;;5.00;;
80313;SDS011;69628;47.516;18.828;2023-05-10T05:16:07;15.48;;;4.45;;
80313;SDS011;69628;47.516;18.828;2023-05-10T05:17:07;13.23;;;4.97;;
80313;SDS011;69628;47.516;18.828;2023-05-10T05:18:08;6.72;;;4.47;;
80313;SDS011;69628;47.516;18.828;2023-05-10T05:19:08;8.18;;;4.93;;
80313;SDS011;69628;47.516;18.828;2023-05-10T05:20:09;6.43;;;4.20;;
80313;SDS011;69628;47.516;18.828;2023-05-10T05:21:13;6.15;;;4.63;;
80313;SDS011;69628;47.516;18.828;2023-05-10T05:22:17;10.77;;;4.78;;
80313;SDS011;69628;47.516;18.828;2023-05-10T05:23:19;9.23;;;4.82;;
80313;SDS011;69628;47.516;18.828;2023-05-10T05:24:20;7.70;;;4.68;;
80313;SDS011;69628;47.516;18.828;2023-05-10T05:25:21;9.13;;;4.03;;
80313;SDS011;69628;47.516;18.828;2023-05-10T05:26:21;12.20;;;4.88;;
80313;SDS011;69628;47.516;18.828;2023-05-10T05:27:24;9.93;;;4.40;;
80313;SDS011;69628;47.516;18.828;2023-05-10T05:28:26;6.40;;;4.50;;
80313;SDS011;69628;47.516;18.828;2023-05-10T05:29:26;6.57;;;4.72;;
80313;SDS011;69628;47.516;18.828;2023-05-10T05:30:27;5.53;;;4.10;;
80313;SDS011;69628;47.516;18.828;2023-05-10T05:31:27;8.65;;;5.10;;
80313;SDS011;69628;47.516;18.828;2023-05-10T05:32:27;6.60;;;4.90;;
80313;SDS011;69628;47.516;18.828;2023-05-10T05:33:28;6.80;;;4.88;;
80313;SDS011;69628;47.516;18.828;2023-05-10T05:34:28;8.95;;;4.20;;
80313;SDS011;69628;47.516;18.828;2023-05-10T05:35:29;14.07;;;4.35;;
80313;SDS011;69628;47.516;18.828;2023-05-10T05:36:29;6.10;;;4.50;;
80313;SDS011;69628;47.516;18.828;2023-05-10T05:37:31;8.57;;;4.43;;
80313;SDS011;69628;47.516;18.828;2023-05-10T05:38:32;11.73;;;5.32;;
80313;SDS011;69628;47.516;18.828;2023-05-10T05:39:32;8.27;;;4.85;;
80313;SDS011;69628;47.516;18.828;2023-05-10T05:40:41;10.48;;;4.85;;
80313;SDS011;69628;47.516;18.828;2023-05-10T05:41:42;7.05;;;4.75;;
80313;SDS011;69628;47.516;18.828;2023-05-10T05:42:42;7.72;;;4.30;;
80313;SDS011;69628;47.516;18.828;2023-05-10T05:43:43;10.23;;;4.35;;
80313;SDS011;69628;47.516;18.828;2023-05-10T05:44:43;9.48;;;4.88;;
80313;SDS011;69628;47.516;18.828;2023-05-10T05:45:43;11.95;;;5.00;;
80313;SDS011;69628;47.516;18.828;2023-05-10T05:46:44;6.32;;;4.70;;
80313;SDS011;69628;47.516;18.828;2023-05-10T05:47:45;14.40;;;4.85;;
80313;SDS011;69628;47.516;18.828;2023-05-10T05:48:45;9.45;;;4.93;;
80313;SDS011;69628;47.516;18.828;2023-05-10T05:49:45;6.25;;;4.70;;
80313;SDS011;69628;47.516;18.828;2023-05-10T05:50:46;11.68;;;4.88;;
80313;SDS011;69628;47.516;18.828;2023-05-10T05:51:46;6.55;;;4.10;;
80313;SDS011;69628;47.516;18.828;2023-05-10T05:52:48;8.40;;;4.45;;
80313;SDS011;69628;47.516;18.828;2023-05-10T05:53:58;10.93;;;4.70;;
80313;SDS011;69628;47.516;18.828;2023-05-10T05:54:59;7.13;;;4.38;;
80313;SDS011;69628;47.516;18.828;2023-05-10T05:55:59;6.45;;;4.57;;
80313;SDS011;69628;47.516;18.828;2023-05-10T05:57:00;7.82;;;4.53;;
80313;SDS011;69628;47.516;18.828;2023-05-10T05:58:00;9.40;;;4.18;;
80313;SDS011;69628;47.516;18.828;2023-05-10T05:59:01;8.25;;;3.97;;
80313;SDS011;69628;47.516;18.828;2023-05-10T06:00:02;8.18;;;4.43;;
80313;SDS011;69628;47.516;18.828;2023-05-10T06:01:03;6.38;;;3.92;;
80313;SDS011;69628;47.516;18.828;2023-05-10T06:02:03;6.85;;;4.43;;
80313;SDS011;69628;47.516;18.828;2023-05-10T06:03:03;7.43;;;4.22;;
80313;SDS011;69628;47.516;18.828;2023-05-10T06:04:04;13.90;;;4.45;;
80313;SDS011;69628;47.516;18.828;2023-05-10T06:05:04;5.57;;;4.25;;
80313;SDS011;69628;47.516;18.828;2023-05-10T06:06:05;6.95;;;4.50;;
80313;SDS011;69628;47.516;18.828;2023-05-10T06:07:13;10.80;;;4.82;;
80313;SDS011;69628;47.516;18.828;2023-05-10T06:08:21;7.18;;;4.10;;
80313;SDS011;69628;47.516;18.828;2023-05-10T06:09:22;6.90;;;4.22;;
80313;SDS011;69628;47.516;18.828;2023-05-10T06:10:24;5.80;;;3.72;;
80313;SDS011;69628;47.516;18.828;2023-05-10T06:11:25;12.63;;;4.55;;
80313;SDS011;69628;47.516;18.828;2023-05-10T06:12:26;9.20;;;3.78;;
80313;SDS011;69628;47.516;18.828;2023-05-10T06:13:26;5.65;;;3.67;;
80313;SDS011;69628;47.516;18.828;2023-05-10T06:14:32;9.10;;;3.97;;
80313;SDS011;69628;47.516;18.828;2023-05-10T06:15:32;5.80;;;3.80;;
80313;SDS011;69628;47.516;18.828;2023-05-10T06:16:33;7.55;;;3.92;;
80313;SDS011;69628;47.516;18.828;2023-05-10T06:17:34;8.05;;;4.75;;
80313;SDS011;69628;47.516;18.828;2023-05-10T06:18:34;6.15;;;3.78;;
80313;SDS011;69628;47.516;18.828;2023-05-10T06:19:35;7.07;;;3.85;;
80313;SDS011;69628;47.516;18.828;2023-05-10T06:20:35;10.95;;;3.97;;
80313;SDS011;69628;47.516;18.828;2023-05-10T06:21:36;15.90;;;3.75;;
80313;SDS011;69628;47.516;18.828;2023-05-10T06:22:36;11.18;;;4.20;;
80313;SDS011;69628;47.516;18.828;2023-05-10T06:23:36;7.25;;;3.67;;
80313;SDS011;69628;47.516;18.828;2023-05-10T06:24:37;6.53;;;3.80;;
80313;SDS011;69628;47.516;18.828;2023-05-10T06:25:37;10.93;;;4.28;;
80313;SDS011;69628;47.516;18.828;2023-05-10T06:26:37;6.40;;;3.72;;
80313;SDS011;69628;47.516;18.828;2023-05-10T06:27:38;12.75;;;4.10;;
80313;SDS011;69628;47.516;18.828;2023-05-10T06:28:38;5.72;;;3.42;;
80313;SDS011;69628;47.516;18.828;2023-05-10T06:29:39;7.22;;;4.05;;
80313;SDS011;69628;47.516;18.828;2023-05-10T06:30:39;7.50;;;3.92;;
80313;SDS011;69628;47.516;18.828;2023-05-10T06:31:39;8.32;;;3.95;;
80313;SDS011;69628;47.516;18.828;2023-05-10T06:32:40;7.20;;;4.00;;